Latest Weather Observations for Leigh Creek

IDS60801

Issued at 10:01 pm CST Wednesday 1 July 2015 (issued every 30 minutes, with the page automatically refreshed every 10 minutes)

About weather observations | Map of weather stations | Latest weather observations for SA | Other Formats
Station Details ID: 017110 Name: LEIGH CREEK AIRPORT Lat: -30.60 Lon: 138.42 Height: 258.8 m
Data from the previous 72 hours. | See also: Recent months at Leigh Creek
Date/Time
CST
Temp
°C
App
Temp
°C
Dew
Point
Rel
Hum
%
Delta-T
°C
Wind Press
QNH
hPa
Press
MSL
hPa
Rain
since 9 am
mm
Dir
 
Spd
km/h
Gust
km/h
Spd
kts
Gust
kts
01/10:00pm 8.3 6.8 3.2 70 2.2 CALM 0 0 0 0 1028.8 1029.0 0.0
01/09:30pm 8.6 6.3 3.0 68 2.4 S 4 7 2 4 1028.6 1028.9 0.0
01/09:00pm 9.7 7.0 2.6 61 3.0 S 6 9 3 5 1028.5 1028.8 0.0
01/08:30pm 9.6 6.4 2.9 63 2.9 S 9 11 5 6 1028.5 1028.8 0.0
01/08:00pm 9.4 6.1 2.7 63 2.9 S 9 11 5 6 1028.3 1028.6 0.0
01/07:30pm 9.6 5.9 2.5 61 3.0 S 11 11 6 6 1028.2 1028.5 0.0
01/07:00pm 10.3 6.6 2.4 58 3.4 S 11 11 6 6 1028.0 1028.3 0.0
01/06:30pm 10.8 7.1 2.4 56 3.6 S 11 11 6 6 1027.7 1028.0 0.0
01/06:00pm 11.9 8.6 2.4 52 4.1 S 9 13 5 7 1027.4 1027.7 0.0
01/05:30pm 12.8 9.4 2.1 48 4.7 S 9 13 5 7 1027.4 1027.7 0.0
01/05:00pm 13.5 8.6 1.8 45 5.1 SSW 17 22 9 12 1027.6 1027.9 0.0
01/04:30pm 14.7 9.7 1.6 41 5.8 SSW 17 20 9 11 1027.4 1027.7 0.0
01/04:00pm 15.0 10.1 1.9 41 5.8 SSW 17 24 9 13 1027.3 1027.6 0.0
01/03:30pm 15.6 11.3 1.3 38 6.3 SW 13 22 7 12 1027.3 1027.6 0.0
01/03:00pm 15.6 12.2 2.1 40 6.0 SSW 9 17 5 9 1027.4 1027.7 0.0
01/02:30pm 15.1 11.0 2.3 42 5.7 W 13 19 7 10 1027.6 1027.9 0.0
01/02:00pm 14.9 10.9 3.1 45 5.4 W 13 19 7 10 1027.8 1028.1 0.0
01/01:30pm 14.6 11.0 2.8 45 5.3 W 11 22 6 12 1028.4 1028.7 0.0
01/01:00pm 14.4 10.5 3.2 47 5.1 W 13 19 7 10 1028.9 1029.1 0.0
01/12:30pm 14.1 10.7 3.8 50 4.7 W 11 20 6 11 1029.5 1029.7 0.0
01/12:00pm 13.7 9.9 3.8 51 4.5 WSW 13 20 7 11 1030.0 1030.2 0.0
01/11:30am 13.4 10.7 3.8 52 4.4 WNW 7 15 4 8 1030.3 1030.6 0.0
01/11:00am 12.8 10.1 3.5 53 4.2 NNW 7 11 4 6 1031.1 1031.4 0.0
01/10:30am 12.2 9.1 3.7 56 3.8 NNW 9 15 5 8 1031.2 1031.5 0.0
01/10:00am 11.2 9.4 3.3 58 3.5 N 2 7 1 4 1031.1 1031.4 0.0
01/09:30am 9.3 7.0 2.9 64 2.8 SE 4 6 2 3 1031.0 1031.3 0.0
01/09:00am 7.7 6.2 3.2 73 1.9 CALM 0 0 0 0 1030.9 1031.1 0.0
01/08:30am 5.5 3.8 2.0 78 1.4 CALM 0 6 0 3 1030.9 1031.1 0.0
01/08:00am 3.6 0.7 1.5 86 0.8 SE 6 9 3 5 1030.6 1030.8 0.0
01/07:30am 2.4 -0.8 0.6 88 0.7 SE 7 9 4 5 1030.3 1030.5 0.0
01/07:00am 2.0 -1.2 -0.2 85 0.8 SE 6 7 3 4 1030.1 1030.3 0.0
01/06:30am 3.3 0.4 1.2 86 0.8 SE 6 7 3 4 1029.7 1029.9 0.0
01/06:00am 3.3 0.2 1.3 87 0.8 SE 7 7 4 4 1029.3 1029.5 0.0
01/05:30am 1.6 -0.5 -0.6 85 0.8 CALM 0 7 0 4 1029.1 1029.3 0.0
01/05:00am 4.3 0.9 1.8 84 1.0 S 9 11 5 6 1029.1 1029.3 0.0
01/04:30am 4.9 2.4 1.7 80 1.3 ESE 4 7 2 4 1029.0 1029.1 0.0
01/04:00am 2.6 0.6 0.0 83 1.0 CALM 0 0 0 0 1029.1 1029.3 0.0
01/03:30am 4.5 1.4 1.4 80 1.2 SE 7 9 4 5 1028.9 1029.0 0.0
01/03:00am 4.4 2.7 1.9 84 1.0 CALM 0 0 0 0 1029.0 1029.1 0.0
01/02:30am 3.1 1.3 1.0 86 0.8 CALM 0 0 0 0 1028.9 1029.0 0.0
01/02:00am 4.9 2.2 2.4 84 1.0 SE 6 9 3 5 1028.6 1028.8 0.0
01/01:30am 4.7 3.2 2.9 88 0.7 CALM 0 9 0 5 1028.9 1029.0 0.0
01/01:00am 3.5 0.5 1.1 84 0.9 SE 6 7 3 4 1029.0 1029.1 0.0
01/12:30am 5.0 2.1 2.4 83 1.1 SE 7 9 4 5 1029.0 1029.1 0.0
01/12:00am 4.8 2.3 1.6 80 1.3 SE 4 9 2 5 1029.1 1029.3 0.0
 
Date/Time
CST
Temp
°C
App
Temp
°C
Dew
Point
Rel
Hum
%
Delta-T
°C
Wind Press
QNH
hPa
Press
MSL
hPa
Rain
since 9 am
mm
Dir
 
Spd
km/h
Gust
km/h
Spd
kts
Gust
kts
30/11:30pm 6.1 3.2 2.7 79 1.4 ESE 7 9 4 5 1029.2 1029.4 0.0
30/11:00pm 5.9 4.1 1.2 72 1.9 CALM 0 0 0 0 1029.4 1029.6 0.0
30/10:30pm 6.9 5.1 1.2 67 2.3 CALM 0 0 0 0 1029.7 1029.9 0.0
30/10:00pm 8.2 6.4 1.1 61 2.9 CALM 0 0 0 0 1029.8 1030.0 0.0
30/09:30pm 8.5 6.3 1.2 60 3.0 SE 2 7 1 4 1029.8 1030.0 0.0
30/09:00pm 9.3 6.2 1.2 57 3.3 SSE 7 13 4 7 1029.6 1029.8 0.0
30/08:30pm 9.6 6.1 1.3 56 3.4 S 9 17 5 9 1029.3 1029.5 0.0
30/08:00pm 9.8 5.6 1.5 56 3.5 S 13 17 7 9 1029.1 1029.3 0.0
30/07:30pm 9.6 5.0 1.8 58 3.3 S 15 19 8 10 1028.8 1028.9 0.0
30/07:00pm 10.2 5.6 1.3 54 3.8 SSW 15 17 8 9 1028.6 1028.8 0.0
30/06:30pm 11.1 6.5 1.4 51 4.1 SSW 15 19 8 10 1028.2 1028.4 0.0
30/06:00pm 11.7 6.5 -0.1 44 4.9 SSW 17 20 9 11 1028.0 1028.2 0.0
30/05:30pm 12.5 7.3 0.3 43 5.1 SW 17 20 9 11 1027.8 1028.0 0.0
30/05:00pm 14.0 8.8 0.3 39 5.9 SSW 17 20 9 11 1027.2 1027.4 0.0
30/04:30pm 14.7 9.1 0.2 37 6.2 SSW 19 26 10 14 1027.2 1027.4 0.0
30/04:00pm 15.1 9.3 -0.2 35 6.5 SSW 20 26 11 14 1027.0 1027.2 0.0
30/03:30pm 15.5 9.7 -0.3 34 6.7 S 20 28 11 15 1027.2 1027.4 0.0
30/03:00pm 15.9 10.4 0.5 35 6.7 S 19 28 10 15 1027.0 1027.2 0.0
30/02:30pm 15.9 10.4 1.6 38 6.3 SSW 20 30 11 16 1027.2 1027.4 0.0
30/02:00pm 15.9 10.8 0.9 36 6.6 SSW 17 26 9 14 1027.4 1027.6 0.0
30/01:30pm 15.9 9.9 1.2 37 6.5 SSW 22 30 12 16 1027.6 1027.8 0.0
30/01:00pm 15.8 9.9 1.5 38 6.4 S 22 28 12 15 1028.0 1028.2 0.0
30/12:30pm 15.2 9.7 2.1 41 5.8 SSW 20 28 11 15 1028.4 1028.6 0.0
30/12:00pm 15.4 10.0 1.5 39 6.1 SSW 19 28 10 15 1029.1 1029.3 0.0
30/11:30am 14.9 9.3 1.1 39 6.0 SSW 20 28 11 15 1029.4 1029.6 0.0
30/11:00am 14.7 10.8 5.5 54 4.4 SSW 15 19 8 10 1029.8 1030.0 0.0
30/10:30am 13.5 9.9 5.2 57 3.9 S 13 17 7 9 1029.9 1030.1 0.0
30/10:00am 12.6 10.3 5.8 63 3.2 S 7 11 4 6 1029.9 1030.1 0.0
30/09:30am 11.7 10.2 4.9 63 3.1 ESE 2 9 1 5 1029.8 1030.0 0.0
30/09:00am 9.5 8.4 5.3 75 1.9 CALM 0 0 0 0 1029.7 1029.9 0.0
30/08:30am 7.3 5.2 4.1 80 1.4 ESE 4 7 2 4 1029.6 1029.8 0.0
30/08:00am 6.3 3.2 3.6 83 1.2 ESE 9 11 5 6 1029.3 1029.5 0.0
30/07:30am 5.1 1.9 3.1 87 0.8 ESE 9 11 5 6 1029.0 1029.1 0.0
30/07:00am 5.5 2.8 3.7 88 0.8 ESE 7 11 4 6 1028.6 1028.8 0.0
30/06:30am 5.0 2.3 3.5 90 0.6 ESE 7 9 4 5 1028.3 1028.5 0.0
30/06:00am 5.4 2.8 3.4 87 0.8 ESE 6 9 3 5 1027.9 1028.1 0.0
30/05:30am 5.2 3.8 3.4 88 0.8 CALM 0 0 0 0 1027.8 1028.0 0.0
30/05:00am 5.9 3.2 3.6 85 1.0 ESE 7 9 4 5 1027.4 1027.6 0.0
30/04:30am 6.2 2.7 3.7 84 1.1 ESE 11 11 6 6 1027.4 1027.6 0.0
30/04:00am 6.6 3.6 4.1 84 1.1 ESE 9 11 5 6 1027.5 1027.7 0.0
30/03:30am 6.9 4.5 4.2 83 1.2 ESE 6 9 3 5 1027.7 1027.9 0.0
30/03:00am 6.7 4.1 3.3 79 1.4 ESE 6 9 3 5 1027.7 1027.9 0.0
30/02:30am 8.8 6.2 4.4 74 2.0 ESE 7 9 4 5 1027.8 1028.0 0.0
30/02:00am 8.8 7.6 4.4 74 2.0 CALM 0 0 0 0 1028.1 1028.3 0.0
30/01:30am 8.6 7.4 4.8 77 1.7 CALM 0 0 0 0 1028.1 1028.3 0.0
30/01:00am 9.7 7.4 4.9 72 2.2 ESE 6 7 3 4 1028.1 1028.3 0.0
30/12:30am 10.5 8.1 5.3 70 2.4 ESE 7 13 4 7 1028.2 1028.4 0.0
30/12:00am 10.5 7.8 5.5 71 2.3 ESE 9 11 5 6 1028.4 1028.6 0.0
 
Date/Time
CST
Temp
°C
App
Temp
°C
Dew
Point
Rel
Hum
%
Delta-T
°C
Wind Press
QNH
hPa
Press
MSL
hPa
Rain
since 9 am
mm
Dir
 
Spd
km/h
Gust
km/h
Spd
kts
Gust
kts
29/11:30pm 11.1 9.0 5.6 69 2.6 SE 6 9 3 5 1028.5 1028.7 0.0
29/11:00pm 11.3 9.2 6.0 70 2.5 S 6 9 3 5 1028.8 1028.9 0.0
29/10:30pm 11.5 9.4 6.0 69 2.6 ESE 6 9 3 5 1028.6 1028.8 0.0
29/10:00pm 10.9 8.8 6.5 74 2.1 ESE 7 9 4 5 1028.4 1028.6 0.0
29/09:30pm 11.2 9.0 6.3 72 2.3 ESE 7 11 4 6 1028.5 1028.7 0.0
29/09:00pm 11.4 9.2 6.3 71 2.4 ESE 7 9 4 5 1028.5 1028.7 0.0
29/08:30pm 11.5 10.2 6.0 69 2.6 ESE 2 9 1 5 1028.8 1028.9 0.0
29/08:00pm 12.0 9.7 5.9 66 2.9 ESE 7 11 4 6 1028.5 1028.7 0.0
29/07:30pm 12.5 10.5 6.1 65 3.0 ESE 6 11 3 6 1028.4 1028.6 0.0
29/07:00pm 12.7 9.8 6.3 65 3.1 ESE 11 13 6 7 1028.0 1028.2 0.0
29/06:30pm 13.1 9.4 6.2 63 3.3 ESE 15 19 8 10 1027.9 1028.1 0.0
29/06:00pm 14.3 12.6 5.9 57 4.0 SSW 4 9 2 5 1027.7 1027.9 0.0
29/05:30pm 14.8 11.6 5.3 53 4.5 SSW 11 13 6 7 1027.5 1027.7 0.0
29/05:00pm 15.4 12.2 5.0 50 5.0 SSW 11 13 6 7 1027.5 1027.7 0.0
29/04:30pm 15.8 12.2 4.8 48 5.2 SSW 13 15 7 8 1027.5 1027.7 0.0
29/04:00pm 16.1 12.8 4.8 47 5.4 SSW 11 15 6 8 1027.4 1027.6 0.0
29/03:30pm 16.3 13.0 4.7 46 5.5 SSW 11 15 6 8 1027.5 1027.7 0.0
29/03:00pm 16.3 13.4 4.7 46 5.5 SSW 9 13 5 7 1027.6 1027.8 0.0
29/02:30pm 16.3 13.0 4.4 45 5.6 SSW 11 13 6 7 1027.8 1028.0 0.0
29/02:00pm 16.3 13.7 4.0 44 5.8 SSW 7 13 4 7 1028.0 1028.2 0.0
29/01:30pm 16.4 14.1 4.8 46 5.5 S 6 11 3 6 1028.4 1028.6 0.0
29/01:00pm 16.1 13.5 4.2 45 5.6 SSE 7 9 4 5 1028.6 1028.8 0.0
29/12:30pm 16.0 13.1 4.7 47 5.4 SE 9 15 5 8 1029.1 1029.3 0.0
29/12:00pm 15.3 12.0 4.7 49 5.0 SE 11 15 6 8 1029.6 1029.8 0.0
29/11:30am 14.9 11.3 4.9 51 4.7 ESE 13 15 7 8 1030.2 1030.4 0.0
29/11:00am 14.0 10.4 5.1 55 4.2 ESE 13 19 7 10 1030.5 1030.7 0.0
29/10:30am 12.8 8.4 4.8 58 3.7 ESE 17 20 9 11 1030.9 1031.1 0.0
29/10:00am 12.0 8.8 5.0 62 3.3 ESE 11 13 6 7 1031.3 1031.5 0.0
29/09:30am 11.0 8.5 4.7 65 2.9 SE 7 11 4 6 1031.2 1031.4 0.0
29/09:00am 10.2 7.7 4.6 68 2.5 SE 7 9 4 5 1031.0 1031.2 0.0
29/08:30am 9.5 7.0 4.5 71 2.2 SE 7 13 4 7 1030.8 1031.0 0.0
29/08:00am 8.9 6.3 4.1 72 2.1 S 7 11 4 6 1030.5 1030.7 0.0
29/07:30am 8.6 5.6 4.0 73 2.0 SE 9 13 5 7 1030.0 1030.2 0.0
29/07:00am 8.4 5.9 4.0 74 1.9 SE 6 11 3 6 1029.8 1030.0 0.0
29/06:30am 8.4 5.8 4.0 74 1.9 SE 7 11 4 6 1029.6 1029.8 0.0
29/06:00am 8.4 5.4 4.2 75 1.8 E 9 15 5 8 1029.4 1029.6 0.0
29/05:30am 8.4 3.9 4.2 75 1.8 ESE 17 24 9 13 1029.2 1029.4 0.0
29/05:00am 8.4 4.3 4.4 76 1.8 SE 15 24 8 13 1029.1 1029.3 0.0
29/04:30am 8.7 3.3 4.3 74 1.9 ESE 22 32 12 17 1029.1 1029.3 0.0
29/04:00am 8.9 2.7 4.3 73 2.1 ESE 26 30 14 16 1029.1 1029.3 0.0
29/03:30am 8.9 4.0 4.3 73 2.0 SE 19 26 10 14 1029.2 1029.4 0.0
29/03:00am 8.7 5.0 4.3 74 1.9 SE 13 17 7 9 1029.4 1029.6 0.0
29/02:30am 9.1 4.0 4.1 71 2.2 ESE 20 26 11 14 1029.6 1029.8 0.0
29/02:00am 9.5 4.6 3.9 68 2.5 ESE 19 22 10 12 1029.9 1030.1 0.0
29/01:30am 10.0 4.4 3.7 65 2.8 ESE 22 28 12 15 1030.2 1030.4 0.0
29/01:00am 10.4 4.1 3.9 64 2.9 ESE 26 33 14 18 1030.1 1030.3 0.0
29/12:30am 10.5 4.2 3.8 63 3.0 ESE 26 32 14 17 1030.3 1030.5 0.0
29/12:00am 10.4 4.5 3.9 64 2.9 ESE 24 30 13 16 1030.6 1030.8 0.0
 
Date/Time
CST
Temp
°C
App
Temp
°C
Dew
Point
Rel
Hum
%
Delta-T
°C
Wind Press
QNH
hPa
Press
MSL
hPa
Rain
since 9 am
mm
Dir
 
Spd
km/h
Gust
km/h
Spd
kts
Gust
kts
28/11:30pm 10.4 5.3 4.1 65 2.8 ESE 20 26 11 14 1030.9 1031.1 0.0
28/11:00pm 10.3 5.4 4.2 66 2.8 ESE 19 24 10 13 1031.2 1031.4 0.0
28/10:30pm 10.3 5.5 4.5 67 2.6 ESE 19 24 10 13 1031.3 1031.5 0.0

Other Formats:

Comma delimited format used in spreadsheet applications
http://www.bom.gov.au/fwo/IDS60801/IDS60801.94674.axf

JavaScript Object Notation format (JSON) in row-major order
http://www.bom.gov.au/fwo/IDS60801/IDS60801.94674.json